5 lipca 2022

Czas Kod Pogoda Temp. Widoczność Sufit Wiatr METAR/SPECI
2:00 pm
L
68 °F 2 mi 400 ft 130° 130° 4 kt METAR CYYZ 051800Z 13004KT 110V170 2SM R23/5500VP6000FT/U -DZ BR OVC004 20/20 A2978 RMK ST8 SLP085 DENSITY ALT 1400FT
1:48 pm
L
68 °F 1½ mi 300 ft 130° 130° 5 kt METAR CYYZ 051748Z 13005KT 110V170 1 1/2SM R23/5500V6000FT/N -DZ BR OVC003 20/20 A2978 RMK ST8 SLP086 DENSITY ALT 1400FT
1:00 pm
I
66 °F 2 mi 800 ft 140° 140° 7 kt METAR CYYZ 051700Z 14007KT 2SM -DZ BR SCT003 OVC008 19/19 A2980 RMK SF3ST5 SLP093 DENSITY ALT 1300FT
12:00 pm
L
66 °F 5 mi 400 ft 140° 140° 7 kt METAR CYYZ 051600Z 14007KT 5SM -DZ BR BKN004 OVC012 19/19 A2983 RMK SF5ST3 SLP101 DENSITY ALT 1300FT
11:38 am
I
66 °F 5 mi 500 ft 140° 140° 9 kt METAR CYYZ 051538Z 14009KT 5SM BR BKN005 OVC012 19/19 A2983 RMK SF5SC3 SLP102 DENSITY ALT 1300FT
11:30 am
M
66 °F 5 mi 2.000 ft 130° 130° 9 kt METAR CYYZ 051530Z 13009KT 5SM -RA BR SCT006 OVC020 19/19 A2983 RMK SF4SC4 SLP102 DENSITY ALT 1300FT
11:10 am
M
66 °F 4 mi 2.600 ft 130° 130° 10 kt METAR CYYZ 051510Z 13010KT 4SM -RA BR FEW011 OVC026 19/19 A2983 RMK SF2SC6 SLP104 DENSITY ALT 1300FT
11:00 am
I
66 °F 2½ mi 3.100 ft 140° 140° 9 kt METAR CYYZ 051500Z CCA 14009KT 2 1/2SM R24L/5500V6000FT/U RA BR SCT012 OVC031 19/19 A2984 RMK SF3SC5 SLP106 DENSITY ALT 1300FT
10:49 am
M
66 °F 4 mi 2.800 ft 150° 150° 7 kt METAR CYYZ 051449Z 15007KT 4SM RA BR SCT009 OVC028 19/19 A2984 RMK SF3SC5 SLP106 DENSITY ALT 1300FT
10:30 am
M
66 °F 6 mi 2.600 ft 110° 110° 5 kt METAR CYYZ 051430Z 11005KT 080V140 6SM -RA BR FEW015 BKN026 OVC045 19/19 A2985 RMK CF1SC5SC2 SLP109 DENSITY ALT 1300FT
10:16 am
M
68 °F 5 mi 2.600 ft 080° 080° 4 kt METAR CYYZ 051416Z 08004KT 5SM RA BR BKN026 OVC040 20/18 A2986 RMK SC5SC3 SLP112 DENSITY ALT 1300FT
10:00 am
V
68 °F 10 mi 3.200 ft 070° 070° 5 kt METAR CYYZ 051400Z 07005KT 10SM -RA BKN032 OVC051 20/18 A2986 RMK SC5SC3 SLP112 DENSITY ALT 1400FT
9:42 am
V
68 °F 10 mi 5.600 ft Var Var 4 kt METAR CYYZ 051342Z VRB04KT 10SM -RA FEW021 OVC056 20/18 A2987 RMK CF2SC6 PRESFR SLP115 DENSITY ALT 1400FT
9:34 am
V
68 °F 6 mi 4.400 ft Var Var 2 kt METAR CYYZ 051334Z VRB02KT 6SM RA BR FEW015 OVC044 20/18 A2988 RMK SF2SC6 PRESFR SLP119 DENSITY ALT 1400FT
9:00 am
V
68 °F 10 mi 4.500 ft 140° 140° 4 kt METAR CYYZ 051300Z 14004KT 10SM -RA FEW019 BKN045 OVC080 20/20 A2990 RMK CF2SC3AC3 SLP125 DENSITY ALT 1400FT
8:42 am
V
68 °F 6 mi 4.000 ft 100° 100° 3 kt METAR CYYZ 051242Z 10003KT 060V180 6SM -RA FEW019 BKN040 OVC080 20/20 A2990 RMK CF2SC3AC3 SLP127 DENSITY ALT 1300FT
8:32 am
V
68 °F 6 mi 3.500 ft 180° 180° 3 kt METAR CYYZ 051232Z 18003KT 080V200 6SM RA BR FEW015 BKN035 OVC060 20/20 A2991 RMK SF1SC4SC3 SLP130 DENSITY ALT 1300FT
8:00 am
V
68 °F 10 mi 4.000 ft Var Var 2 kt METAR CYYZ 051200Z VRB02KT 10SM -RA BKN040 OVC100 20/18 A2992 RMK SC5AC3 SLP132 DENSITY ALT 1300FT
7:48 am
V
68 °F 12 mi 10.000 ft 100° 100° 4 kt METAR CYYZ 051148Z 10004KT 060V150 12SM -RA FEW035 OVC100 20/18 A2992 RMK SC2AC6 SLP131 DENSITY ALT 1400FT
7:36 am
V
68 °F 15 mi 10.000 ft 070° 070° 4 kt METAR CYYZ 051136Z 07004KT 15SM FEW030 BKN100 OVC140 20/18 A2991 RMK SC2AC4AC2 SLP129 DENSITY ALT 1400FT
7:00 am
V
68 °F 15 mi 8.000 ft 090° 090° 3 kt METAR CYYZ 051100Z 09003KT 15SM -RA BKN080 OVC120 20/17 A2990 RMK AC6AC2 SLP127 DENSITY ALT 1400FT
6:49 am
V
70 °F 15 mi 12.000 ft 110° 110° 4 kt METAR CYYZ 051049Z 11004KT 15SM -RA BKN120 OVC180 21/16 A2991 RMK AC6AC2 SLP129 DENSITY ALT 1400FT
6:00 am
V
68 °F 15 mi 14.000 ft 100° 100° 3 kt METAR CYYZ 051000Z 10003KT 070V150 15SM BKN140 OVC180 20/16 A2992 RMK AC7AC1 SLP132 DENSITY ALT 1400FT
5:00 am
V
70 °F 15 mi 13.000 ft 110° 110° 4 kt METAR CYYZ 050900Z 11004KT 15SM OVC130 21/15 A2993 RMK AC8 SLP137 DENSITY ALT 1400FT
4:00 am
V
70 °F 15 mi 13.000 ft 110° 110° 3 kt METAR CYYZ 050800Z 11003KT 15SM FEW100 OVC130 21/14 A2995 RMK AC2AC6 SLP144 DENSITY ALT 1400FT
3:00 am
V
70 °F 15 mi 14.000 ft 120° 120° 4 kt METAR CYYZ 050700Z 12004KT 070V140 15SM BKN140 OVC170 21/14 A2998 RMK AC6AC2 SLP151 DENSITY ALT 1400FT
2:00 am
V
70 °F 15 mi 14.000 ft 180° 180° 2 kt METAR CYYZ 050600Z 18002KT 15SM BKN140 OVC170 21/15 A3001 RMK AC5AC3 SLP164 DENSITY ALT 1400FT
1:00 am
V
70 °F 15 mi 12.000 ft 080° 080° 5 kt METAR CYYZ 050500Z 08005KT 15SM OVC120 21/13 A3002 RMK AC8 SLP166 DENSITY ALT 1400FT
12:00 am
V
72 °F 15 mi 15.000 ft 120° 120° 4 kt METAR CYYZ 050400Z 12004KT 15SM SCT110 OVC150 22/11 A3004 RMK AC4AC4 SLP172 DENSITY ALT 1400FT

4 lipca 2022

Czas Kod Pogoda Temp. Widoczność Sufit Wiatr METAR/SPECI
11:00 pm
V
72 °F 15 mi 22.000 ft 120° 120° 3 kt METAR CYYZ 050300Z 12003KT 15SM FEW140 SCT180 BKN220 22/09 A3006 RMK AC2AC1CS4 SLP179 DENSITY ALT 1400FT
10:00 pm
V
72 °F 15 mi 16.000 ft 140° 140° 4 kt METAR CYYZ 050200Z 14004KT 090V160 15SM FEW080 OVC160 22/08 A3007 RMK AC1AS7 SLP185 DENSITY ALT 1400FT
9:00 pm
V
72 °F 15 mi 20.000 ft 090° 090° 3 kt METAR CYYZ 050100Z 09003KT 060V140 15SM FEW080 OVC200 22/10 A3007 RMK AC1CS7 SLP184 DENSITY ALT 1400FT
8:00 pm
V
73 °F 15 mi 7.000 ft 120° 120° 5 kt METAR CYYZ 050000Z 12005KT 15SM SCT050 OVC070 23/10 A3008 RMK SC4AC4 SLP188 DENSITY ALT 1500FT
7:00 pm
V
73 °F 15 mi 24.000 ft 130° 130° 6 kt METAR CYYZ 042300Z 13006KT 090V150 15SM SCT085 SCT140 OVC240 23/11 A3008 RMK AC3AC1CS4 SLP188 DENSITY ALT 1500FT
6:00 pm
V
75 °F 15 mi 14.000 ft 130° 130° 6 kt METAR CYYZ 042200Z 13006KT 15SM SCT085 BKN140 BKN250 24/10 A3009 RMK AC3AC3CI1 SLP189 DENSITY ALT 1500FT
5:00 pm
V
75 °F 15 mi 11.000 ft 180° 180° 5 kt METAR CYYZ 042100Z 18005KT 120V200 15SM SCT080 BKN110 24/11 A3010 RMK AC4AC3 SLP194 DENSITY ALT 1600FT
4:00 pm
V
75 °F 15 mi 7.100 ft 130° 130° 7 kt METAR CYYZ 042000Z 13007KT 15SM BKN071 BKN140 24/10 A3011 RMK AC5AC2 SLP198 DENSITY ALT 1500FT
3:00 pm
V
79 °F 15 mi 8.200 ft 130° 130° 6 kt METAR CYYZ 041900Z 13006KT 15SM FEW055 BKN082 BKN140 26/11 A3012 RMK CF1AC5AC2 CF TR SLP200 DENSITY ALT 1800FT
2:00 pm
V
77 °F 15 mi 10.000 ft 160° 160° 8 kt METAR CYYZ 041800Z 16008KT 100V170 15SM FEW055 BKN100 BKN160 BKN260 25/10 A3013 RMK CU1AC5AC1CI1 CU TR CI TR SLP205 DENSITY ALT 1700FT
1:00 pm
V
77 °F 15 mi 26.000 ft 150° 150° 9 kt METAR CYYZ 041700Z 15009KT 15SM FEW045 FEW120 SCT180 BKN260 25/10 A3015 RMK CU1AC1AC2CI2 CU TR SLP210 DENSITY ALT 1600FT
12:00 pm
V
75 °F 15 mi - 170° 170° 8 kt METAR CYYZ 041600Z 17008KT 100V200 15SM FEW040 FEW140 SCT260 24/10 A3016 RMK CF1AC1CI3 CF TR SLP213 DENSITY ALT 1600FT
11:00 am
V
75 °F 15 mi - 160° 160° 3 kt METAR CYYZ 041500Z 16003KT 100V190 15SM FEW150 SCT260 24/11 A3017 RMK AC1CI2 SLP217 DENSITY ALT 1500FT
10:00 am
V
73 °F 15 mi - 170° 170° 4 kt METAR CYYZ 041400Z 17004KT 080V210 15SM FEW180 FEW260 23/10 A3017 RMK AC1CI2 AC TR SLP216 DENSITY ALT 1400FT
9:00 am
V
72 °F 15 mi - Var Var 2 kt METAR CYYZ 041300Z VRB02KT 15SM FEW180 FEW250 22/11 A3017 RMK AC1CI1 SLP218 DENSITY ALT 1300FT
8:00 am
V
68 °F 15 mi - 020° 020° 3 kt METAR CYYZ 041200Z 02003KT 280V050 15SM FEW080 FEW180 SCT250 20/11 A3018 RMK AC1AC2CI1 AC TR SLP220 DENSITY ALT 1000FT
7:00 am
V
64 °F 15 mi - 310° 310° 3 kt METAR CYYZ 041100Z 31003KT 300V010 15SM FEW080 FEW140 SCT250 18/10 A3017 RMK AC2AC1CI1 AC TR SLP216 DENSITY ALT 800FT
6:00 am
V
63 °F 15 mi 7.200 ft 310° 310° 5 kt METAR CYYZ 041000Z 31005KT 15SM BKN072 17/10 A3016 RMK AC5 SLP215 DENSITY ALT 600FT
5:00 am
V
63 °F 15 mi 7.500 ft 020° 020° 4 kt METAR CYYZ 040900Z 02004KT 15SM BKN075 17/10 A3015 RMK AC5 SLP211 DENSITY ALT 700FT
4:00 am
V
63 °F 15 mi - 320° 320° 4 kt METAR CYYZ 040800Z 32004KT 15SM FEW080 FEW240 17/10 A3015 RMK AC1CI1 AC TR CI TR SLP211 DENSITY ALT 700FT
3:00 am
V
63 °F 15 mi - 280° 280° 3 kt METAR CYYZ 040700Z 28003KT 15SM SCT230 17/09 A3016 RMK CI3 SLP214 DENSITY ALT 700FT
2:00 am
V
64 °F 15 mi - Var Var 2 kt METAR CYYZ 040600Z VRB02KT 15SM FEW240 18/09 A3016 RMK CI2 SLP213 DENSITY ALT 800FT
1:00 am
V
64 °F 15 mi - 010° 010° 2 kt METAR CYYZ 040500Z 01002KT 15SM FEW240 18/09 A3015 RMK CI1 SLP210 DENSITY ALT 900FT
12:00 am
V
66 °F 15 mi - 350° 350° 6 kt METAR CYYZ 040400Z 35006KT 15SM SCT260 19/09 A3015 RMK CI3 SLP209 DENSITY ALT 1000FT

3 lipca 2022

Czas Kod Pogoda Temp. Widoczność Sufit Wiatr METAR/SPECI
11:00 pm
V
68 °F 15 mi - 010° 010° 6 kt METAR CYYZ 040300Z 01006KT 15SM SCT260 20/09 A3014 RMK CI3 SLP208 DENSITY ALT 1100FT
10:00 pm
V
70 °F 15 mi - 010° 010° 8 kt METAR CYYZ 040200Z 01008KT 15SM SCT260 21/09 A3013 RMK CI3 SLP205 DENSITY ALT 1200FT
9:00 pm
V
72 °F 15 mi - 030° 030° 10 kt METAR CYYZ 040100Z 03010KT 15SM FEW260 22/09 A3011 RMK CI1 CI TR SLP198 DENSITY ALT 1300FT
8:00 pm
V
75 °F 15 mi - 020° 020° 11 kt METAR CYYZ 040000Z 02011KT 15SM FEW080 FEW260 24/09 A3011 RMK CF1CI1 CF TR SLP196 DENSITY ALT 1600FT
7:00 pm
V
79 °F 15 mi - 300° 300° 13 kt METAR CYYZ 032300Z 30013KT 270V010 15SM FEW080 SCT260 26/07 A3010 RMK CU2CI1 SLP193 DENSITY ALT 1800FT
6:00 pm
V
81 °F 15 mi - 290° 290° 11 - 20 kt METAR CYYZ 032200Z 29011G20KT 15SM SCT080 27/07 A3010 RMK CU3 SLP192 DENSITY ALT 1900FT
5:00 pm
V
79 °F 15 mi - 330° 330° 14 - 19 kt METAR CYYZ 032100Z 33014G19KT 15SM SCT085 26/07 A3010 RMK CU4 SLP195 DENSITY ALT 1800FT
4:00 pm
V
81 °F 15 mi - 270° 270° 6 kt METAR CYYZ 032000Z 27006KT 170V320 15SM SCT090 27/06 A3010 RMK CU3 SLP192 DENSITY ALT 1900FT
3:00 pm
V
77 °F 15 mi - 140° 140° 12 kt METAR CYYZ 031900Z 14012KT 15SM FEW085 FEW250 25/08 A3010 RMK CU2CI1 CI TR SLP194 DENSITY ALT 1600FT
2:00 pm
V
75 °F 15 mi - 160° 160° 11 kt METAR CYYZ 031800Z 16011KT 15SM FEW070 FEW230 24/09 A3011 RMK CU1CI1 SLP196 DENSITY ALT 1600FT
1:00 pm
V
75 °F 15 mi - 270° 270° 5 kt METAR CYYZ 031700Z 27005KT 240V360 15SM FEW050 FEW250 24/08 A3012 RMK CF1CI1 CF TR CI TR SLP200 DENSITY ALT 1600FT
12:00 pm
V
73 °F 15 mi - 360° 360° 8 kt METAR CYYZ 031600Z 36008KT 290V070 15SM FEW250 23/08 A3015 RMK CI1 CI TR SLP209 DENSITY ALT 1500FT
11:00 am
V
72 °F 15 mi - 020° 020° 7 kt METAR CYYZ 031500Z 02007KT 280V030 15SM FEW250 22/08 A3015 RMK CI1 CI TR SLP211 DENSITY ALT 1300FT
Starsze dane

Pobierz naszą aplikację

Łatwy dostęp do całej pogody lotniczej na telefonie komórkowym i tablecie.
Z wieloma funkcjami niedostępnymi na stronie internetowej, takimi jak wsparcie offline i osobista lista lotnisk.

My i osoby trzecie śledzimy twoje zachowanie w internecie na naszej stronie za pomocą plików cookie. Jeśli kontynuujesz, zakładamy, że zgadzasz się z naszą polityką plików cookie. Dowiedz się więcej